createdAt,value
2023-04-18T00:01:41.150Z,81.88
2023-04-18T00:04:09.869Z,81.89
2023-04-18T00:06:38.197Z,81.81
2023-04-18T00:09:06.707Z,81.88
2023-04-18T00:11:35.069Z,82.22
2023-04-18T00:14:03.520Z,82.45
2023-04-18T00:16:32.662Z,82.22
2023-04-18T00:19:02.542Z,82.08
2023-04-18T00:21:32.120Z,82.01
2023-04-18T00:24:00.136Z,81.87
2023-04-18T00:26:28.286Z,82.09
2023-04-18T00:28:58.104Z,82.21
2023-04-18T00:31:26.238Z,82.10
2023-04-18T00:33:54.299Z,81.85
2023-04-18T00:36:24.875Z,81.73
2023-04-18T00:38:52.832Z,81.87
2023-04-18T00:41:22.755Z,81.80
2023-04-18T00:43:50.835Z,81.64
2023-04-18T00:46:19.040Z,81.66
2023-04-18T00:48:47.987Z,81.76
2023-04-18T00:51:16.157Z,81.89
2023-04-18T00:53:45.637Z,81.46
2023-04-18T00:56:14.663Z,81.63
2023-04-18T00:58:43.348Z,81.73
2023-04-18T01:01:11.841Z,81.65
2023-04-18T01:03:41.163Z,81.45
2023-04-18T01:06:10.004Z,81.62
2023-04-18T01:08:38.188Z,81.75
2023-04-18T01:11:06.383Z,82.01
2023-04-18T01:13:34.342Z,81.58
2023-04-18T01:16:04.654Z,81.61
2023-04-18T01:18:35.218Z,82.06
2023-04-18T01:21:03.369Z,82.23
2023-04-18T01:23:31.836Z,82.12
2023-04-18T01:25:59.911Z,81.81
2023-04-18T01:28:27.938Z,81.54
2023-04-18T01:30:57.456Z,81.67
2023-04-18T01:33:25.549Z,81.99
2023-04-18T01:35:53.523Z,81.77
2023-04-18T01:38:21.582Z,81.80
2023-04-18T01:40:49.779Z,81.92
2023-04-18T01:43:17.827Z,81.68
2023-04-18T01:45:46.008Z,81.64
2023-04-18T01:48:13.970Z,81.76
2023-04-18T01:50:43.382Z,82.00
2023-04-18T01:53:12.162Z,81.88
2023-04-18T01:55:40.247Z,81.58
2023-04-18T01:58:08.336Z,81.52
2023-04-18T02:00:37.731Z,81.63
2023-04-18T02:03:06.920Z,81.47
2023-04-18T02:05:36.481Z,81.17
2023-04-18T02:08:04.987Z,80.92
2023-04-18T02:10:33.117Z,81.00
2023-04-18T02:13:01.135Z,81.19
2023-04-18T02:15:29.299Z,80.88
2023-04-18T02:18:00.306Z,80.91
2023-04-18T02:20:31.792Z,80.81
2023-04-18T02:23:03.354Z,80.77
2023-04-18T02:25:31.413Z,80.59
2023-04-18T02:27:59.488Z,80.50
2023-04-18T02:30:28.270Z,80.15
2023-04-18T02:32:59.280Z,79.98
2023-04-18T02:35:28.127Z,80.13
2023-04-18T02:37:56.592Z,80.07
2023-04-18T02:40:24.719Z,79.64
2023-04-18T02:42:52.727Z,79.34
2023-04-18T02:45:21.107Z,78.37
2023-04-18T02:47:55.632Z,78.20
2023-04-18T02:50:25.272Z,78.13
2023-04-18T02:52:54.539Z,78.40
2023-04-18T02:55:24.594Z,78.57
2023-04-18T02:57:52.937Z,78.56
2023-04-18T03:00:44.049Z,78.60
2023-04-18T03:03:25.161Z,78.72
2023-04-18T03:06:17.133Z,78.74
2023-04-18T03:08:45.547Z,78.79
2023-04-18T03:11:14.515Z,78.65
2023-04-18T03:13:42.472Z,78.38
2023-04-18T03:16:11.588Z,78.15
2023-04-18T03:18:40.121Z,78.02
2023-04-18T03:21:08.436Z,77.73
2023-04-18T03:23:37.972Z,77.34
2023-04-18T03:26:07.953Z,77.49
2023-04-18T03:28:36.946Z,77.09
2023-04-18T03:31:05.676Z,76.91
2023-04-18T03:33:34.932Z,77.14
2023-04-18T03:36:09.162Z,77.10
2023-04-18T03:38:40.704Z,77.32
2023-04-18T03:41:09.485Z,77.39
2023-04-18T03:43:38.481Z,77.55
2023-04-18T03:46:06.464Z,77.75
2023-04-18T03:48:37.425Z,77.44
2023-04-18T03:51:10.469Z,77.35
2023-04-18T03:53:39.049Z,77.79
2023-04-18T03:56:07.267Z,77.84
2023-04-18T03:58:55.579Z,77.75
2023-04-18T04:01:24.054Z,77.48
2023-04-18T04:03:53.115Z,77.14
2023-04-18T04:06:23.167Z,76.94
2023-04-18T04:08:51.347Z,77.08
2023-04-18T04:11:22.813Z,77.06
2023-04-18T04:13:51.377Z,76.93
2023-04-18T04:16:21.926Z,77.09
2023-04-18T04:18:51.108Z,77.08
2023-04-18T04:21:21.264Z,77.03
2023-04-18T04:23:53.894Z,76.97
2023-04-18T04:26:27.819Z,77.11
2023-04-18T04:29:03.818Z,77.03
2023-04-18T04:31:33.114Z,76.98
2023-04-18T04:34:01.946Z,76.90
2023-04-18T04:36:30.002Z,76.86
2023-04-18T04:38:59.729Z,76.88
2023-04-18T04:41:33.527Z,76.94
2023-04-18T04:44:02.007Z,76.88
2023-04-18T04:46:32.731Z,77.32
2023-04-18T04:49:01.427Z,76.93
2023-04-18T04:51:29.595Z,76.61
2023-04-18T04:53:58.182Z,76.66
2023-04-18T04:56:26.480Z,76.33
2023-04-18T04:58:56.260Z,76.24
2023-04-18T05:01:30.958Z,73.24
2023-04-18T05:03:59.807Z,72.98
2023-04-18T05:06:28.258Z,72.29
2023-04-18T05:08:57.640Z,70.83
2023-04-18T05:11:25.725Z,69.43
2023-04-18T05:13:54.001Z,69.24
2023-04-18T05:16:22.151Z,69.07
2023-04-18T05:18:50.357Z,68.39
2023-04-18T05:21:18.530Z,67.11
2023-04-18T05:23:46.794Z,66.25
2023-04-18T05:26:15.084Z,65.76
2023-04-18T05:28:43.148Z,64.17
2023-04-18T05:31:11.296Z,63.42
2023-04-18T05:33:39.287Z,61.77
2023-04-18T05:36:07.713Z,61.20
2023-04-18T05:38:35.963Z,60.38
2023-04-18T05:41:04.032Z,60.29
2023-04-18T05:43:32.186Z,59.85
2023-04-18T05:46:00.291Z,58.05
2023-04-18T05:48:28.451Z,57.05
2023-04-18T05:50:56.607Z,55.98
2023-04-18T05:53:24.885Z,54.94
2023-04-18T05:55:52.952Z,54.69
2023-04-18T05:58:21.136Z,55.58
2023-04-18T06:00:49.211Z,55.98
2023-04-18T06:03:17.529Z,55.24
2023-04-18T06:05:46.229Z,55.61
2023-04-18T06:08:14.339Z,55.09
2023-04-18T06:10:42.404Z,54.32
2023-04-18T06:13:10.675Z,51.68
2023-04-18T06:15:38.855Z,52.38
2023-04-18T06:18:07.261Z,51.81
2023-04-18T06:20:35.608Z,52.29
2023-04-18T06:23:03.884Z,52.15
2023-04-18T06:25:31.856Z,51.76
2023-04-18T06:27:59.944Z,51.94
2023-04-18T06:30:27.985Z,50.92
2023-04-18T06:32:56.193Z,49.84
2023-04-18T06:35:26.382Z,49.67
2023-04-18T06:37:54.877Z,49.62
2023-04-18T06:40:23.145Z,49.18
2023-04-18T06:42:51.106Z,49.71
2023-04-18T06:45:19.640Z,49.63
2023-04-18T06:47:48.963Z,48.00
2023-04-18T06:50:18.615Z,46.57
2023-04-18T06:52:46.663Z,46.04
2023-04-18T06:55:14.645Z,43.63
2023-04-18T06:57:43.529Z,42.39
2023-04-18T07:00:12.153Z,41.87
2023-04-18T07:02:41.262Z,40.76
2023-04-18T07:05:10.126Z,38.68
2023-04-18T07:07:38.368Z,38.03
2023-04-18T07:10:08.974Z,37.88
2023-04-18T07:12:37.382Z,38.76
2023-04-18T07:15:05.924Z,38.40
2023-04-18T07:17:34.065Z,39.17
2023-04-18T07:20:02.086Z,39.35
2023-04-18T07:22:30.079Z,39.76
2023-04-18T07:24:58.137Z,38.89
2023-04-18T07:27:26.989Z,39.00
2023-04-18T07:29:54.986Z,39.17
2023-04-18T07:32:22.987Z,39.31
2023-04-18T07:34:52.981Z,40.38
2023-04-18T07:37:21.664Z,40.24
2023-04-18T07:39:52.191Z,39.18
2023-04-18T07:42:20.265Z,39.72
2023-04-18T07:44:49.722Z,39.51
2023-04-18T07:47:22.308Z,38.86
2023-04-18T07:49:50.974Z,38.58
2023-04-18T07:52:19.111Z,38.64
2023-04-18T07:54:47.286Z,38.58
2023-04-18T07:57:15.760Z,38.28
2023-04-18T07:59:43.722Z,37.77
2023-04-18T08:02:11.884Z,37.44
2023-04-18T08:04:40.163Z,37.45
2023-04-18T08:07:08.244Z,37.43
2023-04-18T08:09:36.417Z,37.41
2023-04-18T08:12:04.892Z,37.12
2023-04-18T08:14:32.960Z,36.78
2023-04-18T08:17:00.930Z,36.28
2023-04-18T08:19:29.004Z,36.58
2023-04-18T08:22:07.618Z,34.84
2023-04-18T08:24:35.695Z,34.53
2023-04-18T08:27:03.786Z,35.33
2023-04-18T08:29:31.940Z,35.03
2023-04-18T08:32:00.340Z,33.77
2023-04-18T08:34:30.020Z,32.74
2023-04-18T08:36:58.086Z,32.43
2023-04-18T08:39:26.462Z,32.09
2023-04-18T08:41:59.685Z,32.24
2023-04-18T08:44:31.117Z,31.74
2023-04-18T08:47:02.663Z,30.46
2023-04-18T08:49:31.571Z,30.68
2023-04-18T08:52:01.514Z,30.73
2023-04-18T08:54:30.658Z,30.25
2023-04-18T08:57:10.441Z,29.55
2023-04-18T08:59:40.199Z,29.14
2023-04-18T09:02:10.368Z,29.35
2023-04-18T09:04:41.219Z,30.39
2023-04-18T09:07:14.161Z,30.13
2023-04-18T09:09:42.219Z,29.41
2023-04-18T09:12:14.601Z,29.17
2023-04-18T09:14:50.347Z,28.80
2023-04-18T09:17:51.319Z,28.84
2023-04-18T09:20:47.726Z,28.60
2023-04-18T09:23:23.603Z,28.72
2023-04-18T09:25:53.390Z,29.01
2023-04-18T09:28:40.889Z,28.94
2023-04-18T09:31:14.635Z,28.64
2023-04-18T09:33:57.024Z,28.39
2023-04-18T09:36:31.562Z,28.66
2023-04-18T09:39:00.229Z,28.26
2023-04-18T09:41:30.662Z,28.49
2023-04-18T09:44:14.864Z,28.32
2023-04-18T09:46:47.203Z,28.31
2023-04-18T09:49:16.930Z,29.27
2023-04-18T09:51:46.503Z,29.39
2023-04-18T09:54:18.674Z,29.17
2023-04-18T09:56:50.811Z,29.28
2023-04-18T09:59:34.042Z,29.14
2023-04-18T10:02:05.657Z,28.81
2023-04-18T10:04:34.593Z,28.30
2023-04-18T10:07:03.700Z,28.34
2023-04-18T10:09:34.702Z,28.24
2023-04-18T10:12:03.449Z,28.42
2023-04-18T10:14:33.434Z,28.79
2023-04-18T10:17:01.878Z,28.56
2023-04-18T10:19:30.403Z,28.33
2023-04-18T10:22:01.072Z,28.34
2023-04-18T10:24:49.957Z,28.07
2023-04-18T10:27:37.719Z,27.85
2023-04-18T10:30:08.898Z,27.56
2023-04-18T10:32:37.468Z,27.79
2023-04-18T10:35:06.743Z,28.92
2023-04-18T10:37:34.821Z,28.33
2023-04-18T10:40:06.896Z,28.82
2023-04-18T10:42:47.424Z,29.86
2023-04-18T10:45:23.103Z,29.74
2023-04-18T10:48:11.403Z,29.59
2023-04-18T10:51:12.420Z,28.56
2023-04-18T10:53:54.572Z,28.33
2023-04-18T10:56:22.764Z,27.94
2023-04-18T10:58:52.425Z,27.92
2023-04-18T11:01:31.178Z,28.82
2023-04-18T11:04:01.580Z,29.47
2023-04-18T11:06:31.505Z,29.39
2023-04-18T11:09:10.245Z,30.01
2023-04-18T11:11:38.548Z,29.55
2023-04-18T11:14:06.579Z,29.02
2023-04-18T11:16:34.777Z,29.25
2023-04-18T11:19:20.982Z,29.61
2023-04-18T11:21:51.366Z,30.67
2023-04-18T11:24:24.394Z,30.85
2023-04-18T11:26:56.179Z,31.17
2023-04-18T11:29:24.288Z,31.67
2023-04-18T11:31:55.958Z,30.98
2023-04-18T11:34:30.871Z,30.54
2023-04-18T11:36:59.672Z,30.86
2023-04-18T11:39:28.157Z,31.01
2023-04-18T11:41:57.462Z,31.16
2023-04-18T11:44:27.050Z,30.81
2023-04-18T11:46:55.333Z,30.10
2023-04-18T11:49:32.063Z,29.66
2023-04-18T11:52:01.324Z,28.86
2023-04-18T11:54:48.428Z,28.88
2023-04-18T11:57:29.912Z,29.08
2023-04-18T11:59:59.922Z,28.72
2023-04-18T12:02:40.715Z,28.84
2023-04-18T12:05:11.028Z,28.97
2023-04-18T12:07:40.516Z,29.41
2023-04-18T12:10:23.541Z,29.84
2023-04-18T12:12:55.899Z,29.99
2023-04-18T12:15:27.414Z,30.10
2023-04-18T12:18:03.638Z,29.88
2023-04-18T12:20:39.308Z,30.24
2023-04-18T12:23:08.173Z,30.82
2023-04-18T12:25:36.641Z,30.13
2023-04-18T12:28:15.234Z,29.15
2023-04-18T12:30:43.425Z,29.24
2023-04-18T12:33:11.708Z,29.04
2023-04-18T12:35:40.087Z,29.19
2023-04-18T12:38:08.156Z,29.14
2023-04-18T12:40:39.554Z,28.82
2023-04-18T12:43:08.387Z,28.95
2023-04-18T12:45:36.671Z,28.64
2023-04-18T12:48:04.885Z,28.95
2023-04-18T12:50:33.324Z,29.03
2023-04-18T12:53:02.512Z,28.80
2023-04-18T12:55:30.689Z,28.97
2023-04-18T12:57:58.992Z,30.17
2023-04-18T13:00:30.357Z,30.25
2023-04-18T13:02:59.618Z,29.93
2023-04-18T13:05:32.948Z,29.61
2023-04-18T13:08:15.128Z,30.10
2023-04-18T13:10:46.346Z,30.54
2023-04-18T13:13:14.724Z,30.39
2023-04-18T13:15:43.009Z,30.28
2023-04-18T13:18:11.097Z,30.05
2023-04-18T13:20:39.251Z,29.86
2023-04-18T13:23:07.321Z,29.49
2023-04-18T13:25:35.381Z,29.91
2023-04-18T13:28:03.681Z,29.65
2023-04-18T13:30:32.145Z,29.75
2023-04-18T13:33:00.334Z,29.38
2023-04-18T13:35:28.714Z,29.14
2023-04-18T13:37:56.980Z,29.59
2023-04-18T13:40:25.360Z,30.18
2023-04-18T13:42:53.931Z,30.32
2023-04-18T13:45:22.113Z,30.41
2023-04-18T13:47:50.227Z,30.37
2023-04-18T13:50:18.553Z,30.38
2023-04-18T13:52:48.879Z,30.60
2023-04-18T13:55:17.748Z,30.71
2023-04-18T13:57:46.248Z,30.46
2023-04-18T14:00:15.333Z,30.74
2023-04-18T14:02:43.694Z,30.69
2023-04-18T14:05:11.949Z,30.08
2023-04-18T14:07:40.040Z,30.59
2023-04-18T14:10:08.776Z,30.23
2023-04-18T14:12:36.933Z,30.44
2023-04-18T14:15:05.908Z,30.26
2023-04-18T14:17:33.989Z,30.61
2023-04-18T14:20:02.664Z,29.51
2023-04-18T14:22:30.714Z,29.58
2023-04-18T14:24:59.331Z,29.55
2023-04-18T14:27:27.860Z,29.91
2023-04-18T14:29:55.871Z,30.10
2023-04-18T14:32:24.039Z,30.74
2023-04-18T14:34:52.844Z,31.20
2023-04-18T14:37:21.380Z,31.15
2023-04-18T14:39:49.402Z,31.16
2023-04-18T14:42:18.178Z,31.42
2023-04-18T14:44:46.564Z,31.37
2023-04-18T14:47:14.728Z,31.33
2023-04-18T14:49:42.702Z,31.53
2023-04-18T14:52:10.761Z,31.67
2023-04-18T14:54:38.938Z,31.79
2023-04-18T14:57:08.562Z,31.82
2023-04-18T14:59:36.476Z,32.13
2023-04-18T15:02:04.874Z,32.38
2023-04-18T15:04:33.277Z,32.73
2023-04-18T15:07:02.074Z,33.09
2023-04-18T15:09:30.256Z,33.16
2023-04-18T15:12:00.270Z,33.15
2023-04-18T15:14:29.159Z,33.28
2023-04-18T15:16:58.296Z,33.45
2023-04-18T15:19:27.923Z,33.38
2023-04-18T15:21:56.126Z,33.30
2023-04-18T15:24:24.391Z,33.46
2023-04-18T15:26:52.458Z,33.49
2023-04-18T15:29:20.936Z,33.43
2023-04-18T15:31:49.026Z,33.57
2023-04-18T15:34:17.610Z,33.78
2023-04-18T15:36:48.796Z,34.00
2023-04-18T15:39:20.392Z,34.34
2023-04-18T15:41:51.539Z,34.73
2023-04-18T15:44:19.618Z,35.13
2023-04-18T15:46:48.844Z,35.33
2023-04-18T15:49:17.273Z,35.62
2023-04-18T15:51:45.260Z,35.92
2023-04-18T15:54:13.604Z,35.97
2023-04-18T15:56:44.039Z,36.88
2023-04-18T15:59:13.338Z,37.64
2023-04-18T16:01:42.783Z,38.33
2023-04-18T16:04:13.418Z,38.55
2023-04-18T16:06:41.854Z,38.76
2023-04-18T16:09:10.457Z,39.00
2023-04-18T16:11:38.404Z,39.84
2023-04-18T16:14:06.480Z,40.12
2023-04-18T16:16:34.663Z,40.44
2023-04-18T16:19:04.359Z,40.53
2023-04-18T16:21:32.722Z,40.75
2023-04-18T16:24:01.032Z,41.30
2023-04-18T16:26:29.594Z,41.10
2023-04-18T16:28:57.769Z,41.13
2023-04-18T16:31:25.922Z,41.41
2023-04-18T16:33:54.090Z,41.62
2023-04-18T16:36:22.270Z,41.86
2023-04-18T16:38:50.558Z,41.71
2023-04-18T16:41:18.637Z,41.77
2023-04-18T16:43:47.017Z,41.80
2023-04-18T16:46:15.104Z,42.01
2023-04-18T16:48:45.073Z,42.28
2023-04-18T16:51:13.342Z,42.47
2023-04-18T16:53:42.169Z,42.44
2023-04-18T16:56:10.341Z,43.11
2023-04-18T16:58:38.438Z,43.30
2023-04-18T17:01:08.319Z,43.48
2023-04-18T17:03:36.862Z,43.28
2023-04-18T17:06:05.952Z,43.51
2023-04-18T17:08:34.383Z,43.84
2023-04-18T17:11:02.576Z,43.60
2023-04-18T17:13:31.712Z,43.64
2023-04-18T17:16:00.053Z,43.67
2023-04-18T17:18:29.543Z,43.62
2023-04-18T17:20:57.714Z,43.51
2023-04-18T17:23:25.894Z,43.41
2023-04-18T17:25:54.363Z,43.54
2023-04-18T17:28:23.802Z,43.64
2023-04-18T17:30:52.146Z,43.53
2023-04-18T17:33:21.185Z,43.59
2023-04-18T17:35:49.292Z,43.83
2023-04-18T17:38:17.366Z,43.98
2023-04-18T17:40:45.546Z,44.24
2023-04-18T17:43:13.617Z,44.38
2023-04-18T17:45:41.696Z,44.48
2023-04-18T17:48:09.954Z,44.32
2023-04-18T17:50:38.149Z,44.37
2023-04-18T17:53:06.429Z,44.29
2023-04-18T17:55:34.470Z,44.26
2023-04-18T17:58:05.329Z,44.26
2023-04-18T18:00:33.324Z,44.66
2023-04-18T18:03:01.792Z,44.74
2023-04-18T18:05:30.696Z,44.43
2023-04-18T18:08:01.180Z,44.62
2023-04-18T18:10:29.737Z,44.55
2023-04-18T18:12:58.373Z,44.79
2023-04-18T18:15:26.530Z,44.94
2023-04-18T18:17:55.693Z,45.00
2023-04-18T18:20:24.213Z,45.02
2023-04-18T18:22:54.560Z,45.16
2023-04-18T18:25:22.795Z,45.22
2023-04-18T18:27:51.704Z,45.34
2023-04-18T18:30:21.937Z,45.35
2023-04-18T18:32:50.252Z,45.54
2023-04-18T18:35:18.414Z,45.60
2023-04-18T18:37:46.485Z,45.45
2023-04-18T18:40:15.147Z,45.48
2023-04-18T18:42:43.090Z,45.58
2023-04-18T18:45:11.317Z,45.78
2023-04-18T18:47:40.191Z,45.89
2023-04-18T18:50:09.232Z,45.69
2023-04-18T18:52:37.724Z,45.77
2023-04-18T18:55:06.653Z,45.74
2023-04-18T18:57:34.778Z,45.76
2023-04-18T19:00:03.155Z,45.64
2023-04-18T19:02:31.478Z,45.77
2023-04-18T19:05:00.583Z,45.82
2023-04-18T19:07:30.068Z,45.70
2023-04-18T19:10:00.646Z,45.86
2023-04-18T19:12:29.453Z,45.85
2023-04-18T19:14:57.938Z,45.80
2023-04-18T19:17:26.412Z,45.82
2023-04-18T19:19:58.088Z,45.85
2023-04-18T19:22:26.339Z,45.84
2023-04-18T19:24:54.404Z,46.36
2023-04-18T19:27:23.402Z,47.31
2023-04-18T19:29:51.673Z,47.89
2023-04-18T19:32:20.891Z,48.04
2023-04-18T19:34:48.939Z,48.28
2023-04-18T19:37:17.013Z,48.91
2023-04-18T19:39:45.050Z,49.08
2023-04-18T19:42:13.362Z,49.15
2023-04-18T19:44:41.893Z,49.63
2023-04-18T19:47:10.186Z,50.45
2023-04-18T19:49:38.289Z,51.23
2023-04-18T19:52:06.425Z,51.60
2023-04-18T19:54:34.639Z,51.88
2023-04-18T19:57:04.758Z,52.63
2023-04-18T19:59:32.923Z,53.12
2023-04-18T20:02:04.339Z,53.62
2023-04-18T20:04:34.294Z,53.80
2023-04-18T20:07:03.076Z,54.51
2023-04-18T20:09:31.249Z,55.12
2023-04-18T20:12:01.568Z,55.63
2023-04-18T20:14:30.162Z,55.60
2023-04-18T20:16:58.484Z,55.35
2023-04-18T20:19:26.916Z,55.25
2023-04-18T20:21:55.185Z,55.62
2023-04-18T20:24:24.034Z,55.91
2023-04-18T20:26:52.057Z,56.01
2023-04-18T20:29:20.335Z,56.15
2023-04-18T20:31:48.498Z,55.96
2023-04-18T20:34:16.668Z,55.95
2023-04-18T20:36:45.174Z,56.18
2023-04-18T20:39:14.326Z,56.50
2023-04-18T20:41:46.706Z,56.20
2023-04-18T20:44:15.934Z,56.25
2023-04-18T20:46:44.073Z,56.30
2023-04-18T20:49:12.273Z,56.66
2023-04-18T20:51:40.328Z,57.13
2023-04-18T20:54:08.591Z,57.07
2023-04-18T20:56:37.405Z,57.26
2023-04-18T20:59:05.463Z,57.37
2023-04-18T21:01:33.802Z,57.16
2023-04-18T21:04:03.306Z,57.36
2023-04-18T21:06:31.527Z,57.63
2023-04-18T21:08:59.509Z,57.77
2023-04-18T21:11:27.965Z,57.56
2023-04-18T21:13:55.949Z,57.94
2023-04-18T21:16:24.352Z,58.35
2023-04-18T21:18:54.534Z,58.22
2023-04-18T21:21:22.604Z,58.25
2023-04-18T21:23:50.982Z,57.96
2023-04-18T21:26:19.046Z,58.08
2023-04-18T21:28:56.569Z,57.99
2023-04-18T21:31:27.193Z,58.11
2023-04-18T21:33:56.997Z,58.26
2023-04-18T21:36:27.106Z,58.22
2023-04-18T21:38:56.512Z,58.35
2023-04-18T21:41:25.727Z,58.53
2023-04-18T21:43:54.502Z,58.83
2023-04-18T21:46:22.804Z,59.44
2023-04-18T21:48:51.268Z,59.35
2023-04-18T21:51:19.343Z,59.24
2023-04-18T21:53:47.489Z,59.25
2023-04-18T21:56:16.945Z,59.51
2023-04-18T21:58:45.162Z,59.58
2023-04-18T22:01:13.379Z,59.68
2023-04-18T22:03:41.918Z,59.73
2023-04-18T22:06:10.495Z,59.80
2023-04-18T22:08:38.990Z,60.15
2023-04-18T22:11:09.309Z,59.96
2023-04-18T22:13:37.355Z,60.03
2023-04-18T22:16:05.996Z,60.51
2023-04-18T22:18:34.192Z,60.27
2023-04-18T22:21:03.564Z,59.89
2023-04-18T22:23:31.913Z,59.86
2023-04-18T22:25:59.984Z,59.95
2023-04-18T22:28:28.682Z,59.98
2023-04-18T22:30:57.141Z,60.01
2023-04-18T22:33:25.851Z,60.06
2023-04-18T22:35:54.525Z,60.08
2023-04-18T22:38:22.903Z,60.04
2023-04-18T22:40:50.967Z,60.04
2023-04-18T22:43:23.877Z,60.08
2023-04-18T22:45:52.114Z,60.38
2023-04-18T22:48:20.436Z,60.72
2023-04-18T22:50:50.100Z,60.39
2023-04-18T22:53:18.402Z,60.57
2023-04-18T22:55:46.881Z,60.63
2023-04-18T22:58:15.130Z,60.58
2023-04-18T23:00:43.448Z,60.52
2023-04-18T23:03:11.829Z,60.80
2023-04-18T23:05:41.164Z,60.87
2023-04-18T23:08:09.386Z,60.91
2023-04-18T23:10:38.381Z,60.92
2023-04-18T23:13:06.560Z,60.70
2023-04-18T23:15:34.751Z,60.69
2023-04-18T23:18:03.116Z,60.66
2023-04-18T23:20:31.283Z,60.91
2023-04-18T23:22:59.455Z,60.89
2023-04-18T23:25:27.543Z,60.73
2023-04-18T23:27:55.778Z,61.02
2023-04-18T23:30:24.025Z,61.22
2023-04-18T23:32:52.293Z,61.33
2023-04-18T23:35:20.415Z,61.34
2023-04-18T23:37:48.478Z,61.04
2023-04-18T23:40:16.660Z,61.15
2023-04-18T23:42:44.955Z,61.63
2023-04-18T23:45:13.219Z,61.76
2023-04-18T23:47:41.663Z,61.72
2023-04-18T23:50:10.388Z,62.00
2023-04-18T23:52:38.782Z,62.05
2023-04-18T23:55:07.439Z,62.47
2023-04-18T23:57:35.727Z,62.78
